Time,TemperatureF,DewpointF,PressureIn,WindDirection,WindDirectionDegrees,WindSpeedMPH,WindSpeedGustMPH,Humidity,HourlyPrecipIn,Conditions,Clouds,dailyrainin,SoftwareType,DateUTC
2013-07-15 00:04:00,70.8,64.3,30.03,WNW,287,0.0,0.0,80,0.01,,SCT250,0.00,VWS V14.01,2013-07-15 05:04:00,
2013-07-15 00:09:00,70.4,64.7,30.03,WNW,287,0.0,1.0,82,0.01,,SCT250,0.00,VWS V14.01,2013-07-15 05:09:00,
2013-07-15 00:15:00,70.3,64.9,30.03,WNW,284,0.0,1.0,83,0.01,,SCT250,0.00,VWS V14.01,2013-07-15 05:15:00,
2013-07-15 00:20:00,69.9,63.8,30.03,WNW,284,1.0,1.0,81,0.01,,SCT250,0.00,VWS V14.01,2013-07-15 05:20:00,
2013-07-15 00:25:00,69.9,63.5,30.03,WNW,282,0.0,2.0,80,0.01,,SCT250,0.00,VWS V14.01,2013-07-15 05:25:00,
2013-07-15 00:30:00,70.1,64.0,30.04,WNW,282,0.0,2.0,81,0.01,,SCT250,0.00,VWS V14.01,2013-07-15 05:30:00,
2013-07-15 00:35:00,69.9,63.8,30.04,WNW,282,0.0,2.0,81,0.01,,SCT250,0.00,VWS V14.01,2013-07-15 05:35:00,
2013-07-15 00:40:00,69.8,63.7,30.04,WNW,282,0.0,2.0,81,0.01,,SCT250,0.00,VWS V14.01,2013-07-15 05:40:00,
2013-07-15 00:45:00,69.8,64.4,30.04,WNW,282,0.0,2.0,83,0.01,,SCT250,0.00,VWS V14.01,2013-07-15 05:45:00,
2013-07-15 00:50:00,69.6,64.2,30.04,WNW,282,0.0,2.0,83,0.01,,SCT250,0.00,VWS V14.01,2013-07-15 05:50:00,
2013-07-15 00:55:00,69.6,64.2,30.04,WNW,282,0.0,2.0,83,0.01,,SCT250,0.00,VWS V14.01,2013-07-15 05:55:00,
2013-07-15 01:00:00,69.6,64.6,30.05,WNW,282,0.0,2.0,84,0.01,,SCT250,0.00,VWS V14.01,2013-07-15 06:00:00,
2013-07-15 01:05:00,69.6,64.6,30.05,WNW,282,0.0,0.0,84,0.00,,,0.00,VWS V14.01,2013-07-15 06:05:00,
2013-07-15 01:10:00,69.8,64.8,30.05,WNW,282,0.0,1.0,84,0.00,,,0.00,VWS V14.01,2013-07-15 06:10:00,
2013-07-15 01:15:00,69.8,64.1,30.04,WNW,285,0.0,5.0,82,0.00,,,0.00,VWS V14.01,2013-07-15 06:15:00,
2013-07-15 01:20:00,69.9,64.5,30.04,WNW,284,0.0,5.0,83,0.00,,,0.00,VWS V14.01,2013-07-15 06:20:00,
2013-07-15 01:25:00,69.9,64.5,30.04,WNW,284,0.0,5.0,83,0.00,,,0.00,VWS V14.01,2013-07-15 06:25:00,
2013-07-15 01:30:00,69.9,64.5,30.03,WNW,284,0.0,5.0,83,0.00,,,0.00,VWS V14.01,2013-07-15 06:30:00,
2013-07-15 01:35:00,69.9,64.2,30.03,WNW,284,0.0,5.0,82,0.00,,,0.00,VWS V14.01,2013-07-15 06:35:00,
2013-07-15 01:40:00,69.9,63.8,30.03,WNW,284,0.0,5.0,81,0.00,,,0.00,VWS V14.01,2013-07-15 06:40:00,
2013-07-15 01:45:00,69.9,63.5,30.03,WNW,284,0.0,5.0,80,0.00,,,0.00,VWS V14.01,2013-07-15 06:45:00,
2013-07-15 01:50:00,69.9,63.1,30.03,WNW,287,0.0,5.0,79,0.00,,,0.00,VWS V14.01,2013-07-15 06:50:00,
2013-07-15 01:55:00,70.1,62.9,30.03,WNW,287,0.0,5.0,78,0.00,,,0.00,VWS V14.01,2013-07-15 06:55:00,
2013-07-15 02:00:00,70.1,62.9,30.03,WNW,287,0.0,0.0,78,0.00,,,0.00,VWS V14.01,2013-07-15 07:00:00,
2013-07-15 02:06:00,70.1,63.3,30.03,South,181,2.0,5.0,79,0.00,,BKN250,0.00,VWS V14.01,2013-07-15 07:06:00,
2013-07-15 02:11:00,70.3,63.1,30.03,SSW,193,0.0,7.0,78,0.00,,BKN250,0.00,VWS V14.01,2013-07-15 07:11:00,
2013-07-15 02:16:00,70.4,63.2,30.03,SSW,193,0.0,7.0,78,0.00,,BKN250,0.00,VWS V14.01,2013-07-15 07:16:00,
2013-07-15 02:21:00,70.4,63.2,30.03,SSW,192,0.0,7.0,78,0.00,,BKN250,0.00,VWS V14.01,2013-07-15 07:21:00,
2013-07-15 02:26:00,70.4,62.8,30.03,SSW,192,0.0,7.0,77,0.00,,BKN250,0.00,VWS V14.01,2013-07-15 07:26:00,
2013-07-15 02:31:00,70.4,62.8,30.04,SSW,198,0.0,7.0,77,0.00,,BKN250,0.00,VWS V14.01,2013-07-15 07:31:00,
2013-07-15 02:36:00,70.3,62.8,30.04,SSW,210,0.0,7.0,77,0.00,,BKN250,0.00,VWS V14.01,2013-07-15 07:36:00,
2013-07-15 02:41:00,70.3,63.1,30.04,SSW,210,2.0,7.0,78,0.00,,BKN250,0.00,VWS V14.01,2013-07-15 07:41:00,
2013-07-15 02:46:00,70.3,63.5,30.05,SSW,213,0.0,7.0,79,0.00,,BKN250,0.00,VWS V14.01,2013-07-15 07:46:00,
2013-07-15 02:51:00,70.1,63.3,30.05,SSW,192,0.0,7.0,79,0.00,,BKN250,0.00,VWS V14.01,2013-07-15 07:51:00,
2013-07-15 02:56:00,69.8,62.6,30.05,SSW,193,0.0,7.0,78,0.00,,BKN250,0.00,VWS V14.01,2013-07-15 07:56:00,
2013-07-15 03:01:00,69.8,63.0,30.05,SSW,200,0.0,3.0,79,0.00,,,0.00,VWS V14.01,2013-07-15 08:01:00,
2013-07-15 03:06:00,69.6,63.2,30.05,SSW,195,6.0,11.0,80,0.00,,,0.00,VWS V14.01,2013-07-15 08:06:00,
2013-07-15 03:11:00,69.1,63.4,30.05,North,0,1.0,11.0,82,0.00,,,0.00,VWS V14.01,2013-07-15 08:11:00,
2013-07-15 03:16:00,67.6,63.3,30.10,ESE,114,5.0,11.0,86,0.06,,,0.06,VWS V14.01,2013-07-15 08:16:00,
2013-07-15 03:21:00,66.4,63.7,30.10,SE,145,0.0,11.0,91,0.22,,,0.22,VWS V14.01,2013-07-15 08:21:00,
2013-07-15 03:26:00,66.0,63.9,30.10,SW,227,0.0,11.0,93,0.24,,,0.24,VWS V14.01,2013-07-15 08:26:00,
2013-07-15 03:31:00,65.5,64.0,30.06,WNW,301,0.0,11.0,95,0.25,,,0.25,VWS V14.01,2013-07-15 08:31:00,
2013-07-15 03:36:00,65.2,64.3,30.06,West,278,6.0,11.0,97,0.26,,,0.26,VWS V14.01,2013-07-15 08:36:00,
2013-07-15 03:41:00,64.8,63.6,30.06,WNW,295,6.0,11.0,96,0.26,,,0.26,VWS V14.01,2013-07-15 08:41:00,
2013-07-15 03:46:00,64.7,63.8,30.05,NW,313,0.0,11.0,97,0.26,,,0.26,VWS V14.01,2013-07-15 08:46:00,
2013-07-15 03:51:00,64.7,63.8,30.05,South,188,0.0,11.0,97,0.26,,,0.26,VWS V14.01,2013-07-15 08:51:00,
2013-07-15 03:57:00,64.8,64.2,30.05,South,184,0.0,11.0,98,0.29,,,0.29,VWS V14.01,2013-07-15 08:57:00,
2013-07-15 04:02:00,64.8,64.2,30.10,SSW,212,2.0,7.0,98,0.30,,,0.30,VWS V14.01,2013-07-15 09:02:00,
2013-07-15 04:07:00,64.8,64.5,30.10,SSW,193,2.0,7.0,99,0.32,,,0.32,VWS V14.01,2013-07-15 09:07:00,
2013-07-15 04:12:00,64.8,64.2,30.10,SW,219,2.0,7.0,98,0.33,,,0.33,VWS V14.01,2013-07-15 09:12:00,
2013-07-15 04:17:00,64.7,64.4,30.09,SW,223,2.0,7.0,99,0.33,,,0.33,VWS V14.01,2013-07-15 09:17:00,
2013-07-15 04:22:00,64.7,64.4,30.09,SW,223,0.0,7.0,99,0.34,,,0.34,VWS V14.01,2013-07-15 09:22:00,
2013-07-15 04:27:00,64.7,64.4,30.09,West,264,3.0,7.0,99,0.35,,,0.35,VWS V14.01,2013-07-15 09:27:00,
2013-07-15 04:32:00,64.8,64.8,30.05,WNW,285,5.0,7.0,100,0.36,,,0.36,VWS V14.01,2013-07-15 09:32:00,
2013-07-15 04:37:00,64.8,64.8,30.05,West,281,0.0,7.0,100,0.36,,,0.36,VWS V14.01,2013-07-15 09:37:00,
2013-07-15 04:42:00,64.8,64.8,30.05,West,263,0.0,7.0,100,0.37,,,0.37,VWS V14.01,2013-07-15 09:42:00,
2013-07-15 04:47:00,65.0,65.0,30.07,West,261,0.0,7.0,100,0.38,,,0.38,VWS V14.01,2013-07-15 09:47:00,
2013-07-15 04:52:00,65.0,65.0,30.07,WNW,285,0.0,7.0,100,0.39,,,0.39,VWS V14.01,2013-07-15 09:52:00,
2013-07-15 04:57:00,65.0,65.0,30.07,NNW,343,5.0,7.0,100,0.39,,,0.39,VWS V14.01,2013-07-15 09:57:00,
2013-07-15 05:02:00,64.8,64.8,30.06,NNW,328,5.0,5.0,100,0.10,,OVC110,0.40,VWS V14.01,2013-07-15 10:02:00,
2013-07-15 05:07:00,64.8,64.8,30.06,North,359,0.0,5.0,100,0.10,,OVC110,0.40,VWS V14.01,2013-07-15 10:07:00,
2013-07-15 05:12:00,64.8,64.8,30.06,NW,319,0.0,5.0,100,0.10,,OVC110,0.40,VWS V14.01,2013-07-15 10:12:00,
2013-07-15 05:17:00,64.8,64.8,30.06,NNW,328,0.0,5.0,100,0.10,,OVC110,0.40,VWS V14.01,2013-07-15 10:17:00,
2013-07-15 05:22:00,64.8,64.8,30.06,NNE,32,0.0,5.0,100,0.12,,OVC110,0.42,VWS V14.01,2013-07-15 10:22:00,
2013-07-15 05:27:00,64.8,64.8,30.06,NNW,346,0.0,7.0,100,0.13,,OVC110,0.43,VWS V14.01,2013-07-15 10:27:00,
2013-07-15 05:32:00,64.8,64.8,30.05,NW,306,0.0,7.0,100,0.13,,OVC110,0.43,VWS V14.01,2013-07-15 10:32:00,
2013-07-15 05:37:00,65.0,65.0,30.05,NW,304,0.0,7.0,100,0.13,,OVC110,0.43,VWS V14.01,2013-07-15 10:37:00,
2013-07-15 05:42:00,65.0,65.0,30.05,WNW,298,0.0,7.0,100,0.13,,OVC110,0.43,VWS V14.01,2013-07-15 10:42:00,
2013-07-15 05:48:00,65.2,65.2,30.07,WNW,302,0.0,7.0,100,0.13,,OVC110,0.43,VWS V14.01,2013-07-15 10:48:00,
2013-07-15 05:53:00,65.3,65.3,30.07,WNW,285,0.0,7.0,100,0.13,,OVC110,0.43,VWS V14.01,2013-07-15 10:53:00,
2013-07-15 05:58:00,65.3,65.3,30.07,West,260,0.0,7.0,100,0.13,,OVC110,0.43,VWS V14.01,2013-07-15 10:58:00,
2013-07-15 06:03:00,65.3,65.3,30.08,WNW,295,0.0,6.0,100,0.03,,,0.43,VWS V14.01,2013-07-15 11:03:00,
2013-07-15 06:08:00,65.3,65.3,30.08,NW,306,0.0,6.0,100,0.03,,,0.43,VWS V14.01,2013-07-15 11:08:00,
2013-07-15 06:13:00,65.3,65.3,30.08,WNW,296,2.0,6.0,100,0.03,,,0.43,VWS V14.01,2013-07-15 11:13:00,
2013-07-15 06:18:00,65.3,65.3,30.08,WNW,299,1.0,6.0,100,0.03,,,0.43,VWS V14.01,2013-07-15 11:18:00,
2013-07-15 06:23:00,65.3,65.3,30.08,WNW,296,0.0,6.0,100,0.03,,,0.43,VWS V14.01,2013-07-15 11:23:00,
2013-07-15 06:26:00,65.3,65.3,30.08,WNW,295,2.0,6.0,100,0.03,,,0.43,VWS V14.01,2013-07-15 11:26:00,
2013-07-15 06:31:00,65.3,65.3,30.08,WNW,291,2.0,6.0,100,0.03,,,0.43,VWS V14.01,2013-07-15 11:31:00,
2013-07-15 06:36:00,65.5,65.5,30.08,WNW,295,0.0,6.0,100,0.03,,,0.43,VWS V14.01,2013-07-15 11:36:00,
2013-07-15 06:41:00,65.5,65.5,30.08,WNW,295,0.0,6.0,100,0.03,,,0.43,VWS V14.01,2013-07-15 11:41:00,
2013-07-15 06:46:00,65.5,65.5,30.08,WNW,295,0.0,6.0,100,0.03,,,0.43,VWS V14.01,2013-07-15 11:46:00,
2013-07-15 06:51:00,65.5,65.5,30.08,WNW,292,0.0,6.0,100,0.03,,,0.43,VWS V14.01,2013-07-15 11:51:00,
2013-07-15 06:56:00,65.5,65.5,30.08,WNW,292,0.0,6.0,100,0.03,,,0.43,VWS V14.01,2013-07-15 11:56:00,
2013-07-15 07:01:00,65.6,65.6,30.09,WNW,292,0.0,1.0,100,0.00,,OVC030,0.43,VWS V14.01,2013-07-15 12:01:00,
2013-07-15 07:06:00,65.6,65.6,30.09,NW,304,0.0,5.0,100,0.00,,OVC030,0.43,VWS V14.01,2013-07-15 12:06:00,
2013-07-15 07:11:00,65.6,65.6,30.09,NW,304,0.0,5.0,100,0.00,,OVC030,0.43,VWS V14.01,2013-07-15 12:11:00,
2013-07-15 07:16:00,65.6,65.6,30.09,NW,305,2.0,5.0,100,0.00,,OVC030,0.43,VWS V14.01,2013-07-15 12:16:00,
2013-07-15 07:21:00,65.5,65.5,30.09,NW,305,0.0,5.0,100,0.00,,OVC030,0.43,VWS V14.01,2013-07-15 12:21:00,
2013-07-15 07:27:00,65.6,65.6,30.09,North,354,2.0,5.0,100,0.00,,OVC030,0.43,VWS V14.01,2013-07-15 12:27:00,
2013-07-15 07:32:00,65.5,65.5,30.08,North,352,5.0,10.0,100,0.00,,OVC030,0.43,VWS V14.01,2013-07-15 12:32:00,
2013-07-15 07:37:00,65.5,65.5,30.08,North,356,1.0,10.0,100,0.00,,OVC030,0.43,VWS V14.01,2013-07-15 12:37:00,
2013-07-15 07:42:00,65.5,65.5,30.08,North,359,5.0,10.0,100,0.00,,OVC030,0.43,VWS V14.01,2013-07-15 12:42:00,
2013-07-15 07:47:00,65.5,65.5,30.08,North,0,0.0,10.0,100,0.00,,OVC030,0.43,VWS V14.01,2013-07-15 12:47:00,
2013-07-15 07:52:00,65.5,65.5,30.08,North,359,5.0,10.0,100,0.00,,OVC030,0.43,VWS V14.01,2013-07-15 12:52:00,
2013-07-15 07:57:00,65.6,65.6,30.08,North,0,5.0,10.0,100,0.00,,OVC030,0.43,VWS V14.01,2013-07-15 12:57:00,
2013-07-15 08:02:00,65.8,65.8,30.09,North,354,2.0,5.0,100,0.00,,OVC180,0.43,VWS V14.01,2013-07-15 13:02:00,
2013-07-15 08:07:00,66.0,66.0,30.09,North,353,1.0,6.0,100,0.00,,OVC180,0.43,VWS V14.01,2013-07-15 13:07:00,
2013-07-15 08:12:00,66.1,66.1,30.09,North,359,1.0,6.0,100,0.00,,OVC180,0.43,VWS V14.01,2013-07-15 13:12:00,
2013-07-15 08:17:00,66.3,66.3,30.10,North,352,5.0,7.0,100,0.00,,OVC180,0.43,VWS V14.01,2013-07-15 13:17:00,
2013-07-15 08:22:00,66.3,66.3,30.10,NNW,336,1.0,7.0,100,0.00,,OVC180,0.43,VWS V14.01,2013-07-15 13:22:00,
2013-07-15 08:27:00,66.4,66.4,30.10,NE,51,0.0,7.0,100,0.00,,OVC180,0.43,VWS V14.01,2013-07-15 13:27:00,
2013-07-15 08:32:00,66.4,66.4,30.10,North,0,2.0,7.0,100,0.00,,OVC180,0.43,VWS V14.01,2013-07-15 13:32:00,
2013-07-15 08:37:00,66.6,66.6,30.10,North,7,2.0,7.0,100,0.00,,OVC180,0.43,VWS V14.01,2013-07-15 13:37:00,
2013-07-15 08:42:00,66.8,66.8,30.10,NW,309,1.0,7.0,100,0.00,,OVC180,0.43,VWS V14.01,2013-07-15 13:42:00,
2013-07-15 08:47:00,66.9,66.9,30.10,East,86,2.0,7.0,100,0.00,,OVC180,0.43,VWS V14.01,2013-07-15 13:47:00,
2013-07-15 08:52:00,66.9,66.9,30.10,North,0,7.0,7.0,100,0.00,,OVC180,0.43,VWS V14.01,2013-07-15 13:52:00,
2013-07-15 08:57:00,66.8,66.8,30.10,ENE,61,0.0,12.0,100,0.00,,OVC180,0.43,VWS V14.01,2013-07-15 13:57:00,
2013-07-15 09:02:00,66.9,66.9,30.10,East,99,5.0,5.0,100,0.00,,OVC160,0.43,VWS V14.01,2013-07-15 14:02:00,
2013-07-15 09:07:00,67.1,67.1,30.10,East,88,5.0,7.0,100,0.00,,OVC160,0.43,VWS V14.01,2013-07-15 14:07:00,
2013-07-15 09:12:00,67.1,66.5,30.10,North,356,3.0,12.0,98,0.00,,OVC160,0.43,VWS V14.01,2013-07-15 14:12:00,
2013-07-15 09:18:00,67.3,67.0,30.10,North,0,0.0,12.0,99,0.00,,OVC160,0.43,VWS V14.01,2013-07-15 14:18:00,
2013-07-15 09:23:00,67.6,67.0,30.10,ENE,62,2.0,12.0,98,0.00,,OVC160,0.43,VWS V14.01,2013-07-15 14:23:00,
2013-07-15 09:28:00,67.9,67.0,30.10,East,90,0.0,12.0,97,0.00,,OVC160,0.43,VWS V14.01,2013-07-15 14:28:00,
2013-07-15 09:33:00,68.1,67.5,30.11,ESE,109,5.0,12.0,98,0.00,,OVC160,0.43,VWS V14.01,2013-07-15 14:33:00,
2013-07-15 09:38:00,68.1,67.2,30.11,East,83,0.0,12.0,97,0.00,,OVC160,0.43,VWS V14.01,2013-07-15 14:38:00,
2013-07-15 09:43:00,68.3,67.7,30.11,North,4,0.0,12.0,98,0.00,,OVC160,0.43,VWS V14.01,2013-07-15 14:43:00,
2013-07-15 09:48:00,68.4,67.8,30.10,NNE,25,0.0,12.0,98,0.00,,OVC160,0.43,VWS V14.01,2013-07-15 14:48:00,
2013-07-15 09:53:00,68.8,68.5,30.10,East,88,1.0,12.0,99,0.00,,OVC160,0.43,VWS V14.01,2013-07-15 14:53:00,
2013-07-15 09:59:00,68.9,68.9,30.10,NNW,340,2.0,12.0,100,0.00,,OVC160,0.43,VWS V14.01,2013-07-15 14:59:00,
2013-07-15 10:04:00,69.3,69.0,30.10,ENE,72,0.0,5.0,99,0.00,,OVC150,0.43,VWS V14.01,2013-07-15 15:04:00,
2013-07-15 10:09:00,69.4,68.8,30.10,NNE,13,0.0,5.0,98,0.00,,OVC150,0.43,VWS V14.01,2013-07-15 15:09:00,
2013-07-15 10:14:00,69.6,69.0,30.11,East,86,0.0,5.0,98,0.00,,OVC150,0.43,VWS V14.01,2013-07-15 15:14:00,
2013-07-15 10:20:00,69.9,68.4,30.11,East,92,2.0,5.0,95,0.00,,OVC150,0.43,VWS V14.01,2013-07-15 15:20:00,
2013-07-15 10:25:00,70.3,69.1,30.11,East,85,0.0,5.0,96,0.00,,OVC150,0.43,VWS V14.01,2013-07-15 15:25:00,
2013-07-15 10:30:00,70.6,68.8,30.11,ENE,68,3.0,6.0,94,0.00,,OVC150,0.43,VWS V14.01,2013-07-15 15:30:00,
2013-07-15 10:36:00,71.1,68.7,30.11,East,83,0.0,7.0,92,0.00,,OVC150,0.43,VWS V14.01,2013-07-15 15:36:00,
2013-07-15 10:41:00,71.6,68.8,30.11,ENE,64,5.0,10.0,91,0.00,,OVC150,0.43,VWS V14.01,2013-07-15 15:41:00,
2013-07-15 10:47:00,72.1,69.0,30.11,ENE,69,0.0,10.0,90,0.00,,OVC150,0.43,VWS V14.01,2013-07-15 15:47:00,
2013-07-15 10:52:00,72.5,68.8,30.11,ENE,66,3.0,10.0,88,0.00,,OVC150,0.43,VWS V14.01,2013-07-15 15:52:00,
2013-07-15 10:58:00,72.7,68.9,30.11,East,83,2.0,10.0,88,0.00,,OVC150,0.43,VWS V14.01,2013-07-15 15:58:00,
2013-07-15 11:04:00,73.0,68.6,30.10,ENE,78,6.0,12.0,86,0.00,,OVC130,0.43,VWS V14.01,2013-07-15 16:04:00,
2013-07-15 11:09:00,73.2,69.1,30.10,ENE,71,6.0,12.0,87,0.00,,OVC130,0.43,VWS V14.01,2013-07-15 16:09:00,
2013-07-15 11:14:00,73.3,69.2,30.11,ENE,66,5.0,12.0,87,0.00,,OVC130,0.43,VWS V14.01,2013-07-15 16:14:00,
2013-07-15 11:20:00,73.7,68.9,30.11,ENE,78,6.0,12.0,85,0.00,,OVC130,0.43,VWS V14.01,2013-07-15 16:20:00,
2013-07-15 11:25:00,74.0,68.9,30.11,ENE,78,2.0,12.0,84,0.00,,OVC130,0.43,VWS V14.01,2013-07-15 16:25:00,
2013-07-15 11:31:00,74.6,69.1,30.11,ENE,66,0.0,13.0,83,0.00,,OVC130,0.43,VWS V14.01,2013-07-15 16:31:00,
2013-07-15 11:36:00,75.1,69.2,30.11,East,79,10.0,13.0,82,0.00,,OVC130,0.43,VWS V14.01,2013-07-15 16:36:00,
2013-07-15 11:41:00,75.6,69.4,30.11,ENE,65,10.0,14.0,81,0.00,,OVC130,0.43,VWS V14.01,2013-07-15 16:41:00,
2013-07-15 11:46:00,76.1,69.5,30.10,East,85,5.0,14.0,80,0.00,,OVC130,0.43,VWS V14.01,2013-07-15 16:46:00,
2013-07-15 11:52:00,77.2,69.1,30.10,ENE,76,7.0,19.0,76,0.00,,OVC130,0.43,VWS V14.01,2013-07-15 16:52:00,
2013-07-15 11:57:00,77.7,69.2,30.10,South,174,1.0,19.0,75,0.00,,OVC130,0.43,VWS V14.01,2013-07-15 16:57:00,
2013-07-15 12:02:00,77.4,68.5,30.10,NNE,18,7.0,16.0,74,0.00,,OVC110,0.43,VWS V14.01,2013-07-15 17:02:00,
2013-07-15 12:08:00,77.9,68.6,30.10,ESE,106,12.0,16.0,73,0.00,,OVC110,0.43,VWS V14.01,2013-07-15 17:08:00,
2013-07-15 12:13:00,78.1,67.9,30.10,East,97,13.0,16.0,71,0.00,,OVC110,0.43,VWS V14.01,2013-07-15 17:13:00,
2013-07-15 12:18:00,77.7,67.1,30.10,SE,138,7.0,16.0,70,0.00,,OVC110,0.43,VWS V14.01,2013-07-15 17:18:00,
2013-07-15 12:23:00,77.9,66.9,30.10,ENE,65,5.0,16.0,69,0.00,,OVC110,0.43,VWS V14.01,2013-07-15 17:23:00,
2013-07-15 12:29:00,77.7,67.1,30.10,NE,34,5.0,16.0,70,0.00,,OVC110,0.43,VWS V14.01,2013-07-15 17:29:00,
2013-07-15 12:34:00,78.1,67.9,30.11,NE,49,7.0,16.0,71,0.00,,OVC110,0.43,VWS V14.01,2013-07-15 17:34:00,
2013-07-15 12:39:00,78.3,68.5,30.11,East,95,2.0,16.0,72,0.00,,OVC110,0.43,VWS V14.01,2013-07-15 17:39:00,
2013-07-15 12:44:00,78.8,67.8,30.10,East,93,5.0,16.0,69,0.00,,OVC110,0.43,VWS V14.01,2013-07-15 17:44:00,
2013-07-15 12:49:00,79.0,67.6,30.10,East,93,5.0,16.0,68,0.00,,OVC110,0.43,VWS V14.01,2013-07-15 17:49:00,
2013-07-15 12:55:00,78.8,66.9,30.10,SSE,168,6.0,16.0,67,0.00,,OVC110,0.43,VWS V14.01,2013-07-15 17:55:00,
2013-07-15 13:00:00,78.3,66.0,30.11,SSE,152,7.0,16.0,66,0.00,,OVC110,0.43,VWS V14.01,2013-07-15 18:00:00,
2013-07-15 13:06:00,78.5,67.1,30.11,South,169,3.0,10.0,68,0.00,,OVC140,0.43,VWS V14.01,2013-07-15 18:06:00,
2013-07-15 13:11:00,79.0,66.7,30.11,ESE,116,7.0,12.0,66,0.00,,OVC140,0.43,VWS V14.01,2013-07-15 18:11:00,
2013-07-15 13:17:00,78.8,66.5,30.11,ESE,104,1.0,12.0,66,0.00,,OVC140,0.43,VWS V14.01,2013-07-15 18:17:00,
2013-07-15 13:22:00,78.6,65.9,30.11,SE,126,14.0,16.0,65,0.00,,OVC140,0.43,VWS V14.01,2013-07-15 18:22:00,
2013-07-15 13:27:00,79.2,66.9,30.11,ESE,102,5.0,16.0,66,0.00,,OVC140,0.43,VWS V14.01,2013-07-15 18:27:00,
2013-07-15 13:32:00,79.4,67.1,30.11,NNE,27,0.0,16.0,66,0.00,,OVC140,0.43,VWS V14.01,2013-07-15 18:32:00,
2013-07-15 13:38:00,79.6,65.9,30.11,East,85,3.0,16.0,63,0.00,,OVC140,0.43,VWS V14.01,2013-07-15 18:38:00,
2013-07-15 13:43:00,79.0,67.1,30.11,ENE,61,5.0,16.0,67,0.00,,OVC140,0.43,VWS V14.01,2013-07-15 18:43:00,
2013-07-15 13:48:00,79.2,66.9,30.12,ESE,107,0.0,16.0,66,0.00,,OVC140,0.43,VWS V14.01,2013-07-15 18:48:00,
2013-07-15 13:54:00,78.8,66.1,30.12,East,80,3.0,16.0,65,0.00,,OVC140,0.43,VWS V14.01,2013-07-15 18:54:00,
2013-07-15 13:59:00,79.0,66.2,30.12,East,100,3.0,16.0,65,0.00,,OVC140,0.43,VWS V14.01,2013-07-15 18:59:00,
2013-07-15 14:04:00,79.4,66.2,30.12,SSE,148,3.0,12.0,64,0.00,,OVC140,0.43,VWS V14.01,2013-07-15 19:04:00,
2013-07-15 14:11:00,79.6,66.8,30.12,South,185,5.0,12.0,65,0.00,,OVC140,0.43,VWS V14.01,2013-07-15 19:11:00,
2013-07-15 14:16:00,79.8,66.1,30.11,ESE,102,5.0,12.0,63,0.00,,OVC140,0.43,VWS V14.01,2013-07-15 19:16:00,
2013-07-15 14:21:00,79.4,66.2,30.11,East,96,0.0,12.0,64,0.00,,OVC140,0.43,VWS V14.01,2013-07-15 19:21:00,
2013-07-15 14:26:00,79.0,66.7,30.11,SSW,196,5.0,12.0,66,0.00,,OVC140,0.43,VWS V14.01,2013-07-15 19:26:00,
2013-07-15 14:31:00,78.8,66.1,30.12,ENE,59,2.0,12.0,65,0.00,,OVC140,0.43,VWS V14.01,2013-07-15 19:31:00,
2013-07-15 14:36:00,78.8,65.6,30.12,SSW,195,6.0,16.0,64,0.00,,OVC140,0.43,VWS V14.01,2013-07-15 19:36:00,
2013-07-15 14:41:00,78.5,65.8,30.12,SW,232,6.0,16.0,65,0.00,,OVC140,0.43,VWS V14.01,2013-07-15 19:41:00,
2013-07-15 14:47:00,78.3,65.6,30.12,SE,136,2.0,16.0,65,0.00,,OVC140,0.43,VWS V14.01,2013-07-15 19:47:00,
2013-07-15 14:52:00,78.6,66.3,30.12,SSE,160,0.0,16.0,66,0.00,,OVC140,0.43,VWS V14.01,2013-07-15 19:52:00,
2013-07-15 14:58:00,78.8,66.5,30.12,SE,137,0.0,16.0,66,0.00,,OVC140,0.43,VWS V14.01,2013-07-15 19:58:00,
2013-07-15 15:03:00,79.2,66.0,30.12,ESE,102,0.0,7.0,64,0.00,,OVC120,0.43,VWS V14.01,2013-07-15 20:03:00,
2013-07-15 15:08:00,79.2,66.0,30.12,SW,217,6.0,13.0,64,0.00,,OVC120,0.43,VWS V14.01,2013-07-15 20:08:00,
2013-07-15 15:13:00,79.2,66.4,30.12,SE,136,5.0,13.0,65,0.00,,OVC120,0.43,VWS V14.01,2013-07-15 20:13:00,
2013-07-15 15:19:00,79.2,65.5,30.11,SE,144,6.0,13.0,63,0.00,,OVC120,0.43,VWS V14.01,2013-07-15 20:19:00,
2013-07-15 15:25:00,78.6,66.3,30.11,SE,140,7.0,17.0,66,0.00,,OVC120,0.43,VWS V14.01,2013-07-15 20:25:00,
2013-07-15 15:30:00,78.5,66.2,30.12,NNW,340,1.0,17.0,66,0.00,,OVC120,0.43,VWS V14.01,2013-07-15 20:30:00,
2013-07-15 15:36:00,78.6,65.4,30.12,South,171,7.0,17.0,64,0.00,,OVC120,0.43,VWS V14.01,2013-07-15 20:36:00,
2013-07-15 15:42:00,78.8,65.6,30.12,SSE,147,5.0,17.0,64,0.00,,OVC120,0.43,VWS V14.01,2013-07-15 20:42:00,
2013-07-15 15:47:00,79.0,65.8,30.12,South,184,1.0,17.0,64,0.00,,OVC120,0.43,VWS V14.01,2013-07-15 20:47:00,
2013-07-15 15:52:00,78.8,66.1,30.12,SSE,162,2.0,17.0,65,0.00,,OVC120,0.43,VWS V14.01,2013-07-15 20:52:00,
2013-07-15 15:57:00,78.3,66.0,30.12,SSE,167,5.0,17.0,66,0.00,,OVC120,0.43,VWS V14.01,2013-07-15 20:57:00,
2013-07-15 16:02:00,78.3,66.4,30.12,South,179,0.0,7.0,67,0.00,,OVC120,0.43,VWS V14.01,2013-07-15 21:02:00,
2013-07-15 16:08:00,78.1,66.3,30.12,SE,124,0.0,7.0,67,0.00,,OVC120,0.43,VWS V14.01,2013-07-15 21:08:00,
2013-07-15 16:13:00,78.1,65.8,30.12,SSE,164,2.0,7.0,66,0.00,,OVC120,0.43,VWS V14.01,2013-07-15 21:13:00,
2013-07-15 16:18:00,77.9,66.1,30.12,SSE,152,0.0,7.0,67,0.00,,OVC120,0.43,VWS V14.01,2013-07-15 21:18:00,
2013-07-15 16:23:00,77.7,65.4,30.12,East,85,0.0,7.0,66,0.00,,OVC120,0.43,VWS V14.01,2013-07-15 21:23:00,
2013-07-15 16:28:00,77.6,65.8,30.12,SSW,213,0.0,7.0,67,0.00,,OVC120,0.43,VWS V14.01,2013-07-15 21:28:00,
2013-07-15 16:34:00,77.6,66.2,30.12,South,174,0.0,7.0,68,0.00,,OVC120,0.43,VWS V14.01,2013-07-15 21:34:00,
2013-07-15 16:40:00,77.6,66.6,30.12,South,179,2.0,7.0,69,0.00,,OVC120,0.43,VWS V14.01,2013-07-15 21:40:00,
2013-07-15 16:45:00,77.4,66.0,30.12,SSW,208,1.0,7.0,68,0.00,,OVC120,0.43,VWS V14.01,2013-07-15 21:45:00,
2013-07-15 16:50:00,77.0,66.9,30.12,SW,227,2.0,11.0,71,0.00,,OVC120,0.43,VWS V14.01,2013-07-15 21:50:00,
2013-07-15 16:55:00,76.8,66.7,30.12,SSW,198,13.0,13.0,71,0.00,,OVC120,0.43,VWS V14.01,2013-07-15 21:55:00,
2013-07-15 17:01:00,76.7,66.2,30.12,SSW,198,1.0,5.0,70,0.00,,OVC120,0.43,VWS V14.01,2013-07-15 22:01:00,
2013-07-15 17:07:00,76.7,66.6,30.12,SSE,150,2.0,7.0,71,0.00,,OVC120,0.43,VWS V14.01,2013-07-15 22:07:00,
2013-07-15 17:12:00,76.5,66.8,30.12,SSW,209,0.0,7.0,72,0.00,,OVC120,0.43,VWS V14.01,2013-07-15 22:12:00,
2013-07-15 17:17:00,76.1,66.4,30.12,South,174,0.0,7.0,72,0.00,,OVC120,0.43,VWS V14.01,2013-07-15 22:17:00,
2013-07-15 17:23:00,76.0,67.1,30.12,SW,223,0.0,7.0,74,0.00,,OVC120,0.43,VWS V14.01,2013-07-15 22:23:00,
2013-07-15 17:28:00,75.8,66.1,30.12,NE,40,0.0,7.0,72,0.00,,OVC120,0.43,VWS V14.01,2013-07-15 22:28:00,
2013-07-15 17:33:00,75.8,66.5,30.11,SSE,162,0.0,7.0,73,0.00,,OVC120,0.43,VWS V14.01,2013-07-15 22:33:00,
2013-07-15 17:38:00,75.8,66.9,30.11,South,172,0.0,7.0,74,0.00,,OVC120,0.43,VWS V14.01,2013-07-15 22:38:00,
2013-07-15 17:43:00,76.0,66.7,30.11,South,174,3.0,7.0,73,0.00,,OVC120,0.43,VWS V14.01,2013-07-15 22:43:00,
2013-07-15 17:48:00,76.0,67.1,30.11,SSW,199,0.0,7.0,74,0.00,,OVC120,0.43,VWS V14.01,2013-07-15 22:48:00,
2013-07-15 17:54:00,76.0,66.3,30.11,SSW,212,0.0,7.0,72,0.00,,OVC120,0.43,VWS V14.01,2013-07-15 22:54:00,
2013-07-15 17:59:00,76.1,66.4,30.11,ESE,120,1.0,7.0,72,0.00,,OVC120,0.43,VWS V14.01,2013-07-15 22:59:00,
2013-07-15 18:05:00,76.1,65.6,30.10,South,176,0.0,5.0,70,0.00,,OVC120,0.43,VWS V14.01,2013-07-15 23:05:00,
2013-07-15 18:10:00,76.3,66.2,30.10,SSW,203,0.0,5.0,71,0.00,,OVC120,0.43,VWS V14.01,2013-07-15 23:10:00,
2013-07-15 18:15:00,76.3,66.2,30.10,SSW,200,0.0,5.0,71,0.00,,OVC120,0.43,VWS V14.01,2013-07-15 23:15:00,
2013-07-15 18:21:00,76.3,66.2,30.10,SSW,196,1.0,5.0,71,0.00,,OVC120,0.43,VWS V14.01,2013-07-15 23:21:00,
2013-07-15 18:26:00,76.3,65.8,30.10,SSW,192,0.0,5.0,70,0.00,,OVC120,0.43,VWS V14.01,2013-07-15 23:26:00,
2013-07-15 18:32:00,76.1,66.0,30.10,SSW,198,0.0,5.0,71,0.00,,OVC120,0.43,VWS V14.01,2013-07-15 23:32:00,
2013-07-15 18:37:00,76.1,66.4,30.10,SSW,199,0.0,5.0,72,0.00,,OVC120,0.43,VWS V14.01,2013-07-15 23:37:00,
2013-07-15 18:42:00,76.1,66.8,30.10,SSW,198,0.0,5.0,73,0.00,,OVC120,0.43,VWS V14.01,2013-07-15 23:42:00,
2013-07-15 18:47:00,76.0,66.3,30.10,SW,234,0.0,5.0,72,0.00,,OVC120,0.43,VWS V14.01,2013-07-15 23:47:00,
2013-07-15 18:54:00,76.0,65.5,30.10,South,174,0.0,5.0,70,0.00,,OVC120,0.43,VWS V14.01,2013-07-15 23:54:00,
2013-07-15 18:59:00,75.8,64.5,30.10,South,176,0.0,5.0,68,0.00,,OVC120,0.43,VWS V14.01,2013-07-15 23:59:00,
2013-07-15 19:04:00,75.8,64.5,30.10,South,176,0.0,0.0,68,0.00,,OVC120,0.43,VWS V14.01,2013-07-16 00:04:00,
2013-07-15 19:10:00,76.0,64.7,30.10,South,176,0.0,1.0,68,0.00,,OVC120,0.43,VWS V14.01,2013-07-16 00:10:00,
2013-07-15 19:15:00,75.8,64.9,30.10,South,176,0.0,2.0,69,0.00,,OVC120,0.43,VWS V14.01,2013-07-16 00:15:00,
2013-07-15 19:21:00,75.8,64.9,30.10,South,178,3.0,3.0,69,0.00,,OVC120,0.43,VWS V14.01,2013-07-16 00:21:00,
2013-07-15 19:26:00,75.6,64.7,30.10,South,191,2.0,5.0,69,0.00,,OVC120,0.43,VWS V14.01,2013-07-16 00:26:00,
2013-07-15 19:31:00,75.6,64.7,30.10,South,191,0.0,5.0,69,0.00,,OVC120,0.43,VWS V14.01,2013-07-16 00:31:00,
2013-07-15 19:38:00,75.6,64.7,30.10,South,191,0.0,5.0,69,0.00,,OVC120,0.43,VWS V14.01,2013-07-16 00:38:00,
2013-07-15 19:44:00,75.4,64.9,30.10,South,191,0.0,5.0,70,0.00,,OVC120,0.43,VWS V14.01,2013-07-16 00:44:00,
2013-07-15 19:49:00,75.4,64.1,30.10,South,191,0.0,5.0,68,0.00,,OVC120,0.43,VWS V14.01,2013-07-16 00:49:00,
2013-07-15 19:55:00,75.3,64.4,30.10,South,191,0.0,5.0,69,0.00,,OVC120,0.43,VWS V14.01,2013-07-16 00:55:00,
2013-07-15 20:01:00,75.1,63.8,30.11,South,191,0.0,0.0,68,0.00,,BKN150,0.43,VWS V14.01,2013-07-16 01:01:00,
2013-07-15 20:06:00,75.1,64.2,30.11,South,191,0.0,0.0,69,0.00,,BKN150,0.43,VWS V14.01,2013-07-16 01:06:00,
2013-07-15 20:12:00,74.9,64.1,30.11,South,191,0.0,0.0,69,0.00,,BKN150,0.43,VWS V14.01,2013-07-16 01:12:00,
2013-07-15 20:17:00,74.7,63.9,30.11,South,191,0.0,0.0,69,0.00,,BKN150,0.43,VWS V14.01,2013-07-16 01:17:00,
2013-07-15 20:22:00,74.7,63.9,30.11,South,191,0.0,0.0,69,0.00,,BKN150,0.43,VWS V14.01,2013-07-16 01:22:00,
2013-07-15 20:27:00,74.7,64.7,30.11,South,191,0.0,0.0,71,0.00,,BKN150,0.43,VWS V14.01,2013-07-16 01:27:00,
2013-07-15 20:33:00,74.7,64.7,30.11,South,191,0.0,0.0,71,0.00,,BKN150,0.43,VWS V14.01,2013-07-16 01:33:00,
2013-07-15 20:39:00,74.4,64.8,30.11,South,191,0.0,0.0,72,0.00,,BKN150,0.43,VWS V14.01,2013-07-16 01:39:00,
2013-07-15 20:45:00,74.2,65.0,30.12,South,191,0.0,0.0,73,0.00,,BKN150,0.43,VWS V14.01,2013-07-16 01:45:00,
2013-07-15 20:51:00,74.2,65.0,30.12,South,191,0.0,0.0,73,0.00,,BKN150,0.43,VWS V14.01,2013-07-16 01:51:00,
2013-07-15 20:56:00,74.0,64.8,30.12,South,191,0.0,0.0,73,0.00,,BKN150,0.43,VWS V14.01,2013-07-16 01:56:00,
2013-07-15 21:02:00,74.0,65.2,30.12,South,191,0.0,0.0,74,0.00,,BKN150,0.43,VWS V14.01,2013-07-16 02:02:00,
2013-07-15 21:07:00,74.0,64.8,30.12,South,191,0.0,0.0,73,0.00,,BKN150,0.43,VWS V14.01,2013-07-16 02:07:00,
2013-07-15 21:12:00,73.9,64.7,30.12,South,191,0.0,0.0,73,0.00,,BKN150,0.43,VWS V14.01,2013-07-16 02:12:00,
2013-07-15 21:17:00,73.9,64.7,30.12,South,191,0.0,0.0,73,0.00,,BKN150,0.43,VWS V14.01,2013-07-16 02:17:00,
2013-07-15 21:23:00,73.7,64.5,30.12,South,191,0.0,0.0,73,0.00,,BKN150,0.43,VWS V14.01,2013-07-16 02:23:00,
2013-07-15 21:28:00,73.7,64.5,30.12,South,191,0.0,0.0,73,0.00,,BKN150,0.43,VWS V14.01,2013-07-16 02:28:00,
2013-07-15 21:34:00,73.5,64.3,30.12,South,191,0.0,0.0,73,0.00,,BKN150,0.43,VWS V14.01,2013-07-16 02:34:00,
2013-07-15 21:39:00,73.5,64.7,30.12,South,191,0.0,0.0,74,0.00,,BKN150,0.43,VWS V14.01,2013-07-16 02:39:00,
2013-07-15 21:44:00,73.5,64.7,30.13,South,191,0.0,0.0,74,0.00,,BKN150,0.43,VWS V14.01,2013-07-16 02:44:00,
2013-07-15 21:50:00,73.5,65.1,30.13,South,191,0.0,0.0,75,0.00,,BKN150,0.43,VWS V14.01,2013-07-16 02:50:00,
2013-07-15 21:55:00,73.5,65.1,30.13,South,191,0.0,0.0,75,0.00,,BKN150,0.43,VWS V14.01,2013-07-16 02:55:00,
2013-07-15 22:00:00,73.5,65.1,30.14,South,191,0.0,0.0,75,0.00,,BKN150,0.43,VWS V14.01,2013-07-16 03:00:00,
2013-07-15 22:05:00,73.5,65.1,30.14,South,191,0.0,0.0,75,0.00,,OVC150,0.43,VWS V14.01,2013-07-16 03:05:00,
2013-07-15 22:11:00,73.3,65.3,30.14,South,191,0.0,0.0,76,0.00,,OVC150,0.43,VWS V14.01,2013-07-16 03:11:00,
2013-07-15 22:16:00,73.5,65.5,30.14,South,191,0.0,0.0,76,0.00,,OVC150,0.43,VWS V14.01,2013-07-16 03:16:00,
2013-07-15 22:21:00,73.5,65.9,30.14,South,191,0.0,0.0,77,0.00,,OVC150,0.43,VWS V14.01,2013-07-16 03:21:00,
2013-07-15 22:26:00,73.5,65.9,30.14,South,191,0.0,0.0,77,0.00,,OVC150,0.43,VWS V14.01,2013-07-16 03:26:00,
2013-07-15 22:31:00,73.5,65.9,30.15,South,191,0.0,0.0,77,0.00,,OVC150,0.43,VWS V14.01,2013-07-16 03:31:00,
2013-07-15 22:37:00,73.5,66.2,30.15,South,191,0.0,0.0,78,0.00,,OVC150,0.43,VWS V14.01,2013-07-16 03:37:00,
2013-07-15 22:42:00,73.3,66.8,30.15,South,191,0.0,1.0,80,0.00,,OVC150,0.43,VWS V14.01,2013-07-16 03:42:00,
2013-07-15 22:47:00,73.3,67.1,30.17,South,191,0.0,2.0,81,0.00,,OVC150,0.43,VWS V14.01,2013-07-16 03:47:00,
2013-07-15 22:52:00,73.2,67.7,30.17,East,100,0.0,3.0,83,0.00,,OVC150,0.43,VWS V14.01,2013-07-16 03:52:00,
2013-07-15 22:57:00,73.2,67.7,30.17,East,92,0.0,5.0,83,0.00,,OVC150,0.43,VWS V14.01,2013-07-16 03:57:00,
2013-07-15 23:01:00,73.0,67.5,30.17,East,92,1.0,2.0,83,0.00,,-RA,0.43,VWS V14.01,2013-07-16 04:01:00,
2013-07-15 23:03:00,73.0,67.5,30.17,East,92,1.0,2.0,83,0.00,,-RA,0.43,VWS V14.01,2013-07-16 04:03:00,
2013-07-15 23:04:00,73.0,67.5,30.17,East,92,0.0,2.0,83,0.00,,-RA,0.43,VWS V14.01,2013-07-16 04:04:00,
2013-07-15 23:09:00,73.0,67.9,30.17,East,92,0.0,2.0,84,0.00,,-RA,0.43,VWS V14.01,2013-07-16 04:09:00,
2013-07-15 23:14:00,72.8,67.7,30.16,East,92,0.0,2.0,84,0.00,,-RA,0.43,VWS V14.01,2013-07-16 04:14:00,
2013-07-15 23:19:00,72.8,68.0,30.16,East,83,0.0,5.0,85,0.00,,-RA,0.43,VWS V14.01,2013-07-16 04:19:00,
2013-07-15 23:24:00,72.7,68.3,30.16,East,82,2.0,5.0,86,0.00,,-RA,0.43,VWS V14.01,2013-07-16 04:24:00,
2013-07-15 23:29:00,72.5,68.8,30.16,ENE,65,2.0,5.0,88,0.00,,-RA,0.43,VWS V14.01,2013-07-16 04:29:00,
2013-07-15 23:34:00,72.1,68.7,30.16,ENE,75,2.0,7.0,89,0.00,,-RA,0.43,VWS V14.01,2013-07-16 04:34:00,
2013-07-15 23:40:00,72.0,69.2,30.16,ENE,76,0.0,7.0,91,0.00,,-RA,0.43,VWS V14.01,2013-07-16 04:40:00,
2013-07-15 23:45:00,71.8,69.0,30.17,East,92,0.0,7.0,91,0.00,,-RA,0.43,VWS V14.01,2013-07-16 04:45:00,
2013-07-15 23:50:00,71.6,69.2,30.17,East,82,2.0,7.0,92,0.00,,-RA,0.43,VWS V14.01,2013-07-16 04:50:00,
2013-07-15 23:55:00,71.6,69.2,30.17,East,79,0.0,7.0,92,0.00,,-RA,0.43,VWS V14.01,2013-07-16 04:55:00,